sensor_id;sensor_type;location;lat;lon;timestamp;temperature;humidity
80232;DHT22;70197;42.124;24.752;2023-07-30T00:01:56;24.70;41.10
80232;DHT22;70197;42.124;24.752;2023-07-30T00:04:22;24.70;41.00
80232;DHT22;70197;42.124;24.752;2023-07-30T00:06:48;24.60;40.70
80232;DHT22;70197;42.124;24.752;2023-07-30T00:09:14;24.70;40.70
80232;DHT22;70197;42.124;24.752;2023-07-30T00:11:40;24.60;40.70
80232;DHT22;70197;42.124;24.752;2023-07-30T00:14:05;24.60;40.70
80232;DHT22;70197;42.124;24.752;2023-07-30T00:16:31;24.60;40.40
80232;DHT22;70197;42.124;24.752;2023-07-30T00:18:57;24.60;40.50
80232;DHT22;70197;42.124;24.752;2023-07-30T00:21:22;24.50;40.60
80232;DHT22;70197;42.124;24.752;2023-07-30T00:23:49;24.50;40.60
80232;DHT22;70197;42.124;24.752;2023-07-30T00:26:14;24.50;40.50
80232;DHT22;70197;42.124;24.752;2023-07-30T00:28:40;24.50;40.50
80232;DHT22;70197;42.124;24.752;2023-07-30T00:31:06;24.50;40.50
80232;DHT22;70197;42.124;24.752;2023-07-30T00:33:31;24.40;40.60
80232;DHT22;70197;42.124;24.752;2023-07-30T00:35:57;24.40;40.80
80232;DHT22;70197;42.124;24.752;2023-07-30T00:38:22;24.40;41.00
80232;DHT22;70197;42.124;24.752;2023-07-30T00:40:49;24.30;41.00
80232;DHT22;70197;42.124;24.752;2023-07-30T00:43:14;24.20;41.40
80232;DHT22;70197;42.124;24.752;2023-07-30T00:45:42;24.20;41.50
80232;DHT22;70197;42.124;24.752;2023-07-30T00:48:09;24.20;41.50
80232;DHT22;70197;42.124;24.752;2023-07-30T00:50:35;24.10;41.40
80232;DHT22;70197;42.124;24.752;2023-07-30T00:53:00;24.20;41.40
80232;DHT22;70197;42.124;24.752;2023-07-30T00:55:26;24.10;41.50
80232;DHT22;70197;42.124;24.752;2023-07-30T00:57:52;24.10;41.50
80232;DHT22;70197;42.124;24.752;2023-07-30T01:00:18;24.10;41.50
80232;DHT22;70197;42.124;24.752;2023-07-30T01:02:44;24.10;41.40
80232;DHT22;70197;42.124;24.752;2023-07-30T01:05:09;24.10;41.50
80232;DHT22;70197;42.124;24.752;2023-07-30T01:07:35;24.10;41.70
80232;DHT22;70197;42.124;24.752;2023-07-30T01:10:02;24.10;41.90
80232;DHT22;70197;42.124;24.752;2023-07-30T01:12:29;24.00;42.10
80232;DHT22;70197;42.124;24.752;2023-07-30T01:14:56;24.00;42.30
80232;DHT22;70197;42.124;24.752;2023-07-30T01:17:22;23.90;42.20
80232;DHT22;70197;42.124;24.752;2023-07-30T01:19:48;23.90;42.30
80232;DHT22;70197;42.124;24.752;2023-07-30T01:22:15;23.90;42.20
80232;DHT22;70197;42.124;24.752;2023-07-30T01:24:41;23.90;42.30
80232;DHT22;70197;42.124;24.752;2023-07-30T01:27:08;23.90;42.50
80232;DHT22;70197;42.124;24.752;2023-07-30T01:29:52;23.90;42.60
80232;DHT22;70197;42.124;24.752;2023-07-30T01:32:25;23.90;42.70
80232;DHT22;70197;42.124;24.752;2023-07-30T01:34:53;23.90;42.70
80232;DHT22;70197;42.124;24.752;2023-07-30T01:37:19;23.90;42.70
80232;DHT22;70197;42.124;24.752;2023-07-30T01:39:48;23.80;42.80
80232;DHT22;70197;42.124;24.752;2023-07-30T01:42:14;23.80;42.70
80232;DHT22;70197;42.124;24.752;2023-07-30T01:44:40;23.80;42.80
80232;DHT22;70197;42.124;24.752;2023-07-30T01:47:05;23.80;42.70
80232;DHT22;70197;42.124;24.752;2023-07-30T01:49:31;23.80;42.50
80232;DHT22;70197;42.124;24.752;2023-07-30T01:51:57;23.80;42.40
80232;DHT22;70197;42.124;24.752;2023-07-30T01:54:22;23.80;42.50
80232;DHT22;70197;42.124;24.752;2023-07-30T01:56:48;23.80;42.50
80232;DHT22;70197;42.124;24.752;2023-07-30T01:59:14;23.80;42.50
80232;DHT22;70197;42.124;24.752;2023-07-30T02:01:41;23.80;42.50
80232;DHT22;70197;42.124;24.752;2023-07-30T02:04:06;23.80;42.60
80232;DHT22;70197;42.124;24.752;2023-07-30T02:06:32;23.80;42.60
80232;DHT22;70197;42.124;24.752;2023-07-30T02:08:57;23.70;42.60
80232;DHT22;70197;42.124;24.752;2023-07-30T02:11:23;23.70;42.80
80232;DHT22;70197;42.124;24.752;2023-07-30T02:13:49;23.70;42.70
80232;DHT22;70197;42.124;24.752;2023-07-30T02:16:14;23.70;42.60
80232;DHT22;70197;42.124;24.752;2023-07-30T02:18:40;23.60;42.50
80232;DHT22;70197;42.124;24.752;2023-07-30T02:21:05;23.60;42.60
80232;DHT22;70197;42.124;24.752;2023-07-30T02:23:31;23.60;42.60
80232;DHT22;70197;42.124;24.752;2023-07-30T02:25:57;23.70;42.80
80232;DHT22;70197;42.124;24.752;2023-07-30T02:28:22;23.70;42.80
80232;DHT22;70197;42.124;24.752;2023-07-30T02:30:48;23.60;43.10
80232;DHT22;70197;42.124;24.752;2023-07-30T02:33:14;23.50;43.50
80232;DHT22;70197;42.124;24.752;2023-07-30T02:35:39;23.40;43.60
80232;DHT22;70197;42.124;24.752;2023-07-30T02:38:05;23.40;43.90
80232;DHT22;70197;42.124;24.752;2023-07-30T02:40:31;23.40;43.90
80232;DHT22;70197;42.124;24.752;2023-07-30T02:42:56;23.40;43.90
80232;DHT22;70197;42.124;24.752;2023-07-30T02:45:22;23.30;44.00
80232;DHT22;70197;42.124;24.752;2023-07-30T02:47:48;23.30;44.10
80232;DHT22;70197;42.124;24.752;2023-07-30T02:50:13;23.30;44.10
80232;DHT22;70197;42.124;24.752;2023-07-30T02:52:39;23.20;44.30
80232;DHT22;70197;42.124;24.752;2023-07-30T02:55:05;23.20;44.40
80232;DHT22;70197;42.124;24.752;2023-07-30T02:57:30;23.20;44.50
80232;DHT22;70197;42.124;24.752;2023-07-30T02:59:56;23.20;44.50
80232;DHT22;70197;42.124;24.752;2023-07-30T03:02:22;23.20;44.60
80232;DHT22;70197;42.124;24.752;2023-07-30T03:04:48;23.20;44.60
80232;DHT22;70197;42.124;24.752;2023-07-30T03:07:13;23.10;44.40
80232;DHT22;70197;42.124;24.752;2023-07-30T03:09:39;23.10;44.50
80232;DHT22;70197;42.124;24.752;2023-07-30T03:12:05;23.10;44.50
80232;DHT22;70197;42.124;24.752;2023-07-30T03:14:31;23.10;44.60
80232;DHT22;70197;42.124;24.752;2023-07-30T03:16:56;23.10;44.70
80232;DHT22;70197;42.124;24.752;2023-07-30T03:19:22;23.10;44.80
80232;DHT22;70197;42.124;24.752;2023-07-30T03:21:48;23.10;44.80
80232;DHT22;70197;42.124;24.752;2023-07-30T03:24:13;23.10;44.80
80232;DHT22;70197;42.124;24.752;2023-07-30T03:26:39;23.10;44.80
80232;DHT22;70197;42.124;24.752;2023-07-30T03:29:05;23.10;44.90
80232;DHT22;70197;42.124;24.752;2023-07-30T03:31:30;23.00;45.00
80232;DHT22;70197;42.124;24.752;2023-07-30T03:33:57;23.00;45.00
80232;DHT22;70197;42.124;24.752;2023-07-30T03:36:22;23.00;45.10
80232;DHT22;70197;42.124;24.752;2023-07-30T03:38:48;23.00;44.80
80232;DHT22;70197;42.124;24.752;2023-07-30T03:41:14;23.10;44.30
80232;DHT22;70197;42.124;24.752;2023-07-30T03:43:39;23.10;44.10
80232;DHT22;70197;42.124;24.752;2023-07-30T03:46:05;23.10;43.80
80232;DHT22;70197;42.124;24.752;2023-07-30T03:48:31;23.20;43.90
80232;DHT22;70197;42.124;24.752;2023-07-30T03:50:56;23.30;44.20
80232;DHT22;70197;42.124;24.752;2023-07-30T03:53:22;23.30;44.00
80232;DHT22;70197;42.124;24.752;2023-07-30T03:55:48;23.30;43.60
80232;DHT22;70197;42.124;24.752;2023-07-30T03:58:14;23.40;43.90
80232;DHT22;70197;42.124;24.752;2023-07-30T04:00:40;23.40;44.00
80232;DHT22;70197;42.124;24.752;2023-07-30T04:03:06;23.40;44.20
80232;DHT22;70197;42.124;24.752;2023-07-30T04:05:31;23.50;44.40
80232;DHT22;70197;42.124;24.752;2023-07-30T04:07:57;23.50;44.50
80232;DHT22;70197;42.124;24.752;2023-07-30T04:10:23;23.60;44.60
80232;DHT22;70197;42.124;24.752;2023-07-30T04:12:49;23.60;44.50
80232;DHT22;70197;42.124;24.752;2023-07-30T04:15:15;23.70;44.40
80232;DHT22;70197;42.124;24.752;2023-07-30T04:17:41;23.70;44.30
80232;DHT22;70197;42.124;24.752;2023-07-30T04:20:08;23.80;45.00
80232;DHT22;70197;42.124;24.752;2023-07-30T04:22:37;23.80;45.00
80232;DHT22;70197;42.124;24.752;2023-07-30T04:25:04;23.90;44.00
80232;DHT22;70197;42.124;24.752;2023-07-30T04:27:29;24.00;43.30
80232;DHT22;70197;42.124;24.752;2023-07-30T04:29:55;24.10;42.20
80232;DHT22;70197;42.124;24.752;2023-07-30T04:32:21;24.20;41.90
80232;DHT22;70197;42.124;24.752;2023-07-30T04:34:46;24.30;42.10
80232;DHT22;70197;42.124;24.752;2023-07-30T04:37:12;24.40;41.20
80232;DHT22;70197;42.124;24.752;2023-07-30T04:39:38;24.40;41.40
80232;DHT22;70197;42.124;24.752;2023-07-30T04:42:03;24.40;41.10
80232;DHT22;70197;42.124;24.752;2023-07-30T04:44:29;24.50;41.60
80232;DHT22;70197;42.124;24.752;2023-07-30T04:46:55;24.50;42.30
80232;DHT22;70197;42.124;24.752;2023-07-30T04:49:20;24.50;42.30
80232;DHT22;70197;42.124;24.752;2023-07-30T04:51:46;24.50;41.50
80232;DHT22;70197;42.124;24.752;2023-07-30T04:54:11;24.50;41.10
80232;DHT22;70197;42.124;24.752;2023-07-30T04:56:37;24.70;41.20
80232;DHT22;70197;42.124;24.752;2023-07-30T04:59:03;24.80;40.30
80232;DHT22;70197;42.124;24.752;2023-07-30T05:01:29;24.90;40.00
80232;DHT22;70197;42.124;24.752;2023-07-30T05:03:55;25.00;40.10
80232;DHT22;70197;42.124;24.752;2023-07-30T05:06:20;25.20;39.90
80232;DHT22;70197;42.124;24.752;2023-07-30T05:08:46;25.30;39.00
80232;DHT22;70197;42.124;24.752;2023-07-30T05:11:11;25.40;39.70
80232;DHT22;70197;42.124;24.752;2023-07-30T05:13:37;25.60;38.50
80232;DHT22;70197;42.124;24.752;2023-07-30T05:16:03;25.60;38.50
80232;DHT22;70197;42.124;24.752;2023-07-30T05:18:29;25.70;38.60
80232;DHT22;70197;42.124;24.752;2023-07-30T05:20:55;25.90;38.20
80232;DHT22;70197;42.124;24.752;2023-07-30T05:23:21;26.00;37.40
80232;DHT22;70197;42.124;24.752;2023-07-30T05:25:46;26.10;37.10
80232;DHT22;70197;42.124;24.752;2023-07-30T05:28:12;26.20;37.10
80232;DHT22;70197;42.124;24.752;2023-07-30T05:30:38;26.20;37.80
80232;DHT22;70197;42.124;24.752;2023-07-30T05:33:04;26.40;37.30
80232;DHT22;70197;42.124;24.752;2023-07-30T05:35:30;26.60;36.60
80232;DHT22;70197;42.124;24.752;2023-07-30T05:37:56;26.70;36.20
80232;DHT22;70197;42.124;24.752;2023-07-30T05:40:22;26.80;36.00
80232;DHT22;70197;42.124;24.752;2023-07-30T05:42:48;26.90;35.40
80232;DHT22;70197;42.124;24.752;2023-07-30T05:45:13;27.10;35.90
80232;DHT22;70197;42.124;24.752;2023-07-30T05:47:39;27.30;35.20
80232;DHT22;70197;42.124;24.752;2023-07-30T05:50:06;27.40;35.50
80232;DHT22;70197;42.124;24.752;2023-07-30T05:52:32;27.60;35.20
80232;DHT22;70197;42.124;24.752;2023-07-30T05:54:58;27.70;35.10
80232;DHT22;70197;42.124;24.752;2023-07-30T05:57:23;27.80;34.70
80232;DHT22;70197;42.124;24.752;2023-07-30T05:59:49;27.90;34.90
80232;DHT22;70197;42.124;24.752;2023-07-30T06:02:15;28.00;35.00
80232;DHT22;70197;42.124;24.752;2023-07-30T06:04:41;28.20;34.80
80232;DHT22;70197;42.124;24.752;2023-07-30T06:07:06;28.40;34.20
80232;DHT22;70197;42.124;24.752;2023-07-30T06:09:32;28.60;33.40
80232;DHT22;70197;42.124;24.752;2023-07-30T06:11:58;28.90;33.60
80232;DHT22;70197;42.124;24.752;2023-07-30T06:14:24;29.00;33.30
80232;DHT22;70197;42.124;24.752;2023-07-30T06:16:51;29.10;32.50
80232;DHT22;70197;42.124;24.752;2023-07-30T06:19:17;29.10;31.90
80232;DHT22;70197;42.124;24.752;2023-07-30T06:21:42;29.30;31.60
80232;DHT22;70197;42.124;24.752;2023-07-30T06:24:09;29.30;31.60
80232;DHT22;70197;42.124;24.752;2023-07-30T06:26:34;29.50;31.60
80232;DHT22;70197;42.124;24.752;2023-07-30T06:29:00;29.60;31.70
80232;DHT22;70197;42.124;24.752;2023-07-30T06:31:26;29.70;31.70
80232;DHT22;70197;42.124;24.752;2023-07-30T06:33:52;29.80;30.90
80232;DHT22;70197;42.124;24.752;2023-07-30T06:36:17;29.90;30.60
80232;DHT22;70197;42.124;24.752;2023-07-30T06:38:43;29.90;30.40
80232;DHT22;70197;42.124;24.752;2023-07-30T06:41:09;29.80;30.70
80232;DHT22;70197;42.124;24.752;2023-07-30T06:43:34;29.80;30.60
80232;DHT22;70197;42.124;24.752;2023-07-30T06:46:00;29.90;30.40
80232;DHT22;70197;42.124;24.752;2023-07-30T06:48:26;29.90;30.30
80232;DHT22;70197;42.124;24.752;2023-07-30T06:50:51;30.20;30.20
80232;DHT22;70197;42.124;24.752;2023-07-30T06:53:17;30.40;30.00
80232;DHT22;70197;42.124;24.752;2023-07-30T06:55:43;30.50;30.00
80232;DHT22;70197;42.124;24.752;2023-07-30T06:58:09;30.60;30.00
80232;DHT22;70197;42.124;24.752;2023-07-30T07:00:35;30.80;29.50
80232;DHT22;70197;42.124;24.752;2023-07-30T07:03:01;31.10;29.20
80232;DHT22;70197;42.124;24.752;2023-07-30T07:05:26;31.20;29.10
80232;DHT22;70197;42.124;24.752;2023-07-30T07:07:52;31.30;29.20
80232;DHT22;70197;42.124;24.752;2023-07-30T07:10:17;31.20;28.70
80232;DHT22;70197;42.124;24.752;2023-07-30T07:12:43;31.30;28.70
80232;DHT22;70197;42.124;24.752;2023-07-30T07:15:09;31.40;28.60
80232;DHT22;70197;42.124;24.752;2023-07-30T07:17:34;31.40;28.40
80232;DHT22;70197;42.124;24.752;2023-07-30T07:20:01;31.40;28.40
80232;DHT22;70197;42.124;24.752;2023-07-30T07:22:26;31.50;28.10
80232;DHT22;70197;42.124;24.752;2023-07-30T07:24:53;31.60;29.00
80232;DHT22;70197;42.124;24.752;2023-07-30T07:27:19;31.70;28.00
80232;DHT22;70197;42.124;24.752;2023-07-30T07:29:45;31.80;27.70
80232;DHT22;70197;42.124;24.752;2023-07-30T07:32:10;32.00;27.80
80232;DHT22;70197;42.124;24.752;2023-07-30T07:34:36;32.00;28.10
80232;DHT22;70197;42.124;24.752;2023-07-30T07:37:02;32.10;27.90
80232;DHT22;70197;42.124;24.752;2023-07-30T07:39:28;32.20;27.90
80232;DHT22;70197;42.124;24.752;2023-07-30T07:41:55;32.10;27.50
80232;DHT22;70197;42.124;24.752;2023-07-30T07:44:21;32.10;27.20
80232;DHT22;70197;42.124;24.752;2023-07-30T07:46:47;32.20;27.30
80232;DHT22;70197;42.124;24.752;2023-07-30T07:49:13;32.30;27.40
80232;DHT22;70197;42.124;24.752;2023-07-30T07:51:39;32.40;27.20
80232;DHT22;70197;42.124;24.752;2023-07-30T07:54:04;32.50;26.90
80232;DHT22;70197;42.124;24.752;2023-07-30T07:56:31;32.40;26.90
80232;DHT22;70197;42.124;24.752;2023-07-30T07:58:57;32.60;26.50
80232;DHT22;70197;42.124;24.752;2023-07-30T08:01:23;32.70;26.30
80232;DHT22;70197;42.124;24.752;2023-07-30T08:03:48;32.70;26.50
80232;DHT22;70197;42.124;24.752;2023-07-30T08:06:14;32.90;26.30
80232;DHT22;70197;42.124;24.752;2023-07-30T08:08:40;32.70;25.80
80232;DHT22;70197;42.124;24.752;2023-07-30T08:11:09;32.90;25.70
80232;DHT22;70197;42.124;24.752;2023-07-30T08:13:35;33.20;25.30
80232;DHT22;70197;42.124;24.752;2023-07-30T08:16:01;33.40;25.30
80232;DHT22;70197;42.124;24.752;2023-07-30T08:18:27;33.40;25.20
80232;DHT22;70197;42.124;24.752;2023-07-30T08:20:53;33.60;24.80
80232;DHT22;70197;42.124;24.752;2023-07-30T08:23:19;34.00;24.20
80232;DHT22;70197;42.124;24.752;2023-07-30T08:25:45;34.30;24.30
80232;DHT22;70197;42.124;24.752;2023-07-30T08:28:11;34.50;23.50
80232;DHT22;70197;42.124;24.752;2023-07-30T08:30:37;34.70;23.60
80232;DHT22;70197;42.124;24.752;2023-07-30T08:33:02;35.60;22.80
80232;DHT22;70197;42.124;24.752;2023-07-30T08:35:28;36.90;21.40
80232;DHT22;70197;42.124;24.752;2023-07-30T08:37:54;39.00;20.10
80232;DHT22;70197;42.124;24.752;2023-07-30T08:40:23;41.60;17.80
80232;DHT22;70197;42.124;24.752;2023-07-30T08:42:50;44.50;15.70
80232;DHT22;70197;42.124;24.752;2023-07-30T08:45:17;46.60;14.20
80232;DHT22;70197;42.124;24.752;2023-07-30T08:47:43;48.40;12.90
80232;DHT22;70197;42.124;24.752;2023-07-30T08:50:09;50.00;11.80
80232;DHT22;70197;42.124;24.752;2023-07-30T08:52:35;51.60;10.90
80232;DHT22;70197;42.124;24.752;2023-07-30T08:55:03;52.60;10.10
80232;DHT22;70197;42.124;24.752;2023-07-30T08:57:30;53.60;9.50
80232;DHT22;70197;42.124;24.752;2023-07-30T09:00:17;54.50;8.90
80232;DHT22;70197;42.124;24.752;2023-07-30T09:02:50;55.10;8.70
80232;DHT22;70197;42.124;24.752;2023-07-30T09:05:18;55.20;8.30
80232;DHT22;70197;42.124;24.752;2023-07-30T09:07:44;55.40;8.00
80232;DHT22;70197;42.124;24.752;2023-07-30T09:10:10;55.90;7.80
80232;DHT22;70197;42.124;24.752;2023-07-30T09:12:36;55.60;7.80
80232;DHT22;70197;42.124;24.752;2023-07-30T09:15:05;55.00;8.00
80232;DHT22;70197;42.124;24.752;2023-07-30T09:17:32;53.60;8.50
80232;DHT22;70197;42.124;24.752;2023-07-30T09:20:03;52.50;8.90
80232;DHT22;70197;42.124;24.752;2023-07-30T09:22:30;51.80;9.40
80232;DHT22;70197;42.124;24.752;2023-07-30T09:25:02;50.90;9.70
80232;DHT22;70197;42.124;24.752;2023-07-30T09:27:28;49.70;10.30
80232;DHT22;70197;42.124;24.752;2023-07-30T09:29:58;47.70;11.00
80232;DHT22;70197;42.124;24.752;2023-07-30T09:32:28;46.90;11.20
80232;DHT22;70197;42.124;24.752;2023-07-30T09:34:55;46.20;11.50
80232;DHT22;70197;42.124;24.752;2023-07-30T09:37:21;45.60;12.20
80232;DHT22;70197;42.124;24.752;2023-07-30T09:39:49;45.00;12.70
80232;DHT22;70197;42.124;24.752;2023-07-30T09:42:15;43.40;13.10
80232;DHT22;70197;42.124;24.752;2023-07-30T09:44:41;42.80;13.90
80232;DHT22;70197;42.124;24.752;2023-07-30T09:47:10;42.20;14.40
80232;DHT22;70197;42.124;24.752;2023-07-30T09:49:37;41.60;14.60
80232;DHT22;70197;42.124;24.752;2023-07-30T09:52:04;40.90;14.80
80232;DHT22;70197;42.124;24.752;2023-07-30T09:54:31;40.70;15.00
80232;DHT22;70197;42.124;24.752;2023-07-30T09:56:58;40.40;15.20
80232;DHT22;70197;42.124;24.752;2023-07-30T09:59:24;40.10;15.70
80232;DHT22;70197;42.124;24.752;2023-07-30T10:01:49;39.90;15.60
80232;DHT22;70197;42.124;24.752;2023-07-30T10:04:19;39.60;15.70
80232;DHT22;70197;42.124;24.752;2023-07-30T10:09:15;39.00;16.40
80232;DHT22;70197;42.124;24.752;2023-07-30T10:11:42;38.60;16.80
80232;DHT22;70197;42.124;24.752;2023-07-30T10:14:09;38.40;16.70
80232;DHT22;70197;42.124;24.752;2023-07-30T10:16:35;38.10;17.10
80232;DHT22;70197;42.124;24.752;2023-07-30T10:19:01;37.90;17.20
80232;DHT22;70197;42.124;24.752;2023-07-30T10:21:28;37.80;17.60
80232;DHT22;70197;42.124;24.752;2023-07-30T10:24:03;37.70;17.60
80232;DHT22;70197;42.124;24.752;2023-07-30T10:26:31;37.60;17.60
80232;DHT22;70197;42.124;24.752;2023-07-30T10:29:16;37.50;17.60
80232;DHT22;70197;42.124;24.752;2023-07-30T10:31:52;37.20;18.10
80232;DHT22;70197;42.124;24.752;2023-07-30T10:34:18;36.90;18.20
80232;DHT22;70197;42.124;24.752;2023-07-30T10:36:51;36.80;18.10
80232;DHT22;70197;42.124;24.752;2023-07-30T10:39:21;36.80;18.40
80232;DHT22;70197;42.124;24.752;2023-07-30T10:41:53;36.90;18.40
80232;DHT22;70197;42.124;24.752;2023-07-30T10:44:33;36.60;18.50
80232;DHT22;70197;42.124;24.752;2023-07-30T10:47:00;36.60;18.90
80232;DHT22;70197;42.124;24.752;2023-07-30T10:49:26;36.50;19.30
80232;DHT22;70197;42.124;24.752;2023-07-30T10:51:53;36.40;18.90
80232;DHT22;70197;42.124;24.752;2023-07-30T10:54:19;36.30;18.80
80232;DHT22;70197;42.124;24.752;2023-07-30T10:56:45;36.30;19.00
80232;DHT22;70197;42.124;24.752;2023-07-30T10:59:12;36.20;19.60
80232;DHT22;70197;42.124;24.752;2023-07-30T11:01:40;36.20;20.30
80232;DHT22;70197;42.124;24.752;2023-07-30T11:04:15;36.10;19.70
80232;DHT22;70197;42.124;24.752;2023-07-30T11:06:49;36.00;19.70
80232;DHT22;70197;42.124;24.752;2023-07-30T11:09:22;35.90;20.20
80232;DHT22;70197;42.124;24.752;2023-07-30T11:11:49;35.90;20.20
80232;DHT22;70197;42.124;24.752;2023-07-30T11:14:15;35.70;20.10
80232;DHT22;70197;42.124;24.752;2023-07-30T11:16:56;35.60;19.90
80232;DHT22;70197;42.124;24.752;2023-07-30T11:19:24;35.50;20.00
80232;DHT22;70197;42.124;24.752;2023-07-30T11:21:52;35.00;20.70
80232;DHT22;70197;42.124;24.752;2023-07-30T11:24:19;34.80;20.50
80232;DHT22;70197;42.124;24.752;2023-07-30T11:26:45;34.60;20.40
80232;DHT22;70197;42.124;24.752;2023-07-30T11:29:18;34.50;20.50
80232;DHT22;70197;42.124;24.752;2023-07-30T11:31:45;34.50;21.00
80232;DHT22;70197;42.124;24.752;2023-07-30T11:34:11;34.50;21.50
80232;DHT22;70197;42.124;24.752;2023-07-30T11:36:38;34.50;20.90
80232;DHT22;70197;42.124;24.752;2023-07-30T11:39:04;34.40;21.40
80232;DHT22;70197;42.124;24.752;2023-07-30T11:41:30;34.40;20.90
80232;DHT22;70197;42.124;24.752;2023-07-30T11:43:56;34.40;21.60
80232;DHT22;70197;42.124;24.752;2023-07-30T11:46:21;34.50;21.60
80232;DHT22;70197;42.124;24.752;2023-07-30T11:48:53;34.50;21.40
80232;DHT22;70197;42.124;24.752;2023-07-30T11:51:25;34.20;20.90
80232;DHT22;70197;42.124;24.752;2023-07-30T11:56:23;34.30;22.10
80232;DHT22;70197;42.124;24.752;2023-07-30T11:58:51;34.40;21.90
80232;DHT22;70197;42.124;24.752;2023-07-30T12:01:17;34.00;20.90
80232;DHT22;70197;42.124;24.752;2023-07-30T12:03:43;34.00;21.80
80232;DHT22;70197;42.124;24.752;2023-07-30T12:06:10;34.00;22.40
80232;DHT22;70197;42.124;24.752;2023-07-30T12:08:36;33.90;22.40
80232;DHT22;70197;42.124;24.752;2023-07-30T12:11:04;34.00;22.00
80232;DHT22;70197;42.124;24.752;2023-07-30T12:13:30;33.70;21.60
80232;DHT22;70197;42.124;24.752;2023-07-30T12:15:57;33.70;22.10
80232;DHT22;70197;42.124;24.752;2023-07-30T12:18:24;33.60;22.10
80232;DHT22;70197;42.124;24.752;2023-07-30T12:20:51;33.50;21.90
80232;DHT22;70197;42.124;24.752;2023-07-30T12:23:17;33.40;22.00
80232;DHT22;70197;42.124;24.752;2023-07-30T12:25:43;33.40;22.20
80232;DHT22;70197;42.124;24.752;2023-07-30T12:28:09;33.30;21.60
80232;DHT22;70197;42.124;24.752;2023-07-30T12:30:35;33.20;24.50
80232;DHT22;70197;42.124;24.752;2023-07-30T12:33:02;33.30;24.30
80232;DHT22;70197;42.124;24.752;2023-07-30T12:35:28;33.30;24.70
80232;DHT22;70197;42.124;24.752;2023-07-30T12:37:54;33.20;23.60
80232;DHT22;70197;42.124;24.752;2023-07-30T12:40:19;33.20;24.20
80232;DHT22;70197;42.124;24.752;2023-07-30T12:42:45;33.10;24.80
80232;DHT22;70197;42.124;24.752;2023-07-30T12:45:11;33.10;24.40
80232;DHT22;70197;42.124;24.752;2023-07-30T12:47:36;33.10;24.30
80232;DHT22;70197;42.124;24.752;2023-07-30T12:50:03;33.00;23.80
80232;DHT22;70197;42.124;24.752;2023-07-30T12:52:29;33.10;24.30
80232;DHT22;70197;42.124;24.752;2023-07-30T12:54:55;33.10;24.50
80232;DHT22;70197;42.124;24.752;2023-07-30T12:57:20;33.10;23.80
80232;DHT22;70197;42.124;24.752;2023-07-30T12:59:46;33.00;24.00
80232;DHT22;70197;42.124;24.752;2023-07-30T13:02:12;33.00;23.40
80232;DHT22;70197;42.124;24.752;2023-07-30T13:04:37;32.90;24.00
80232;DHT22;70197;42.124;24.752;2023-07-30T13:07:03;32.90;24.30
80232;DHT22;70197;42.124;24.752;2023-07-30T13:09:30;32.90;23.90
80232;DHT22;70197;42.124;24.752;2023-07-30T13:11:56;33.00;24.10
80232;DHT22;70197;42.124;24.752;2023-07-30T13:14:21;33.10;24.20
80232;DHT22;70197;42.124;24.752;2023-07-30T13:16:47;33.10;23.80
80232;DHT22;70197;42.124;24.752;2023-07-30T13:19:13;33.20;24.00
80232;DHT22;70197;42.124;24.752;2023-07-30T13:21:38;33.20;25.00
80232;DHT22;70197;42.124;24.752;2023-07-30T13:24:04;33.30;24.20
80232;DHT22;70197;42.124;24.752;2023-07-30T13:26:30;33.30;24.20
80232;DHT22;70197;42.124;24.752;2023-07-30T13:28:55;33.30;24.30
80232;DHT22;70197;42.124;24.752;2023-07-30T13:31:21;33.20;23.60
80232;DHT22;70197;42.124;24.752;2023-07-30T13:33:46;33.30;24.00
80232;DHT22;70197;42.124;24.752;2023-07-30T13:36:13;33.30;24.20
80232;DHT22;70197;42.124;24.752;2023-07-30T13:38:39;33.30;23.90
80232;DHT22;70197;42.124;24.752;2023-07-30T13:41:06;33.30;23.60
80232;DHT22;70197;42.124;24.752;2023-07-30T13:43:32;33.30;24.00
80232;DHT22;70197;42.124;24.752;2023-07-30T13:45:58;33.30;23.60
80232;DHT22;70197;42.124;24.752;2023-07-30T13:48:27;33.30;24.10
80232;DHT22;70197;42.124;24.752;2023-07-30T13:50:52;33.30;24.00
80232;DHT22;70197;42.124;24.752;2023-07-30T13:53:18;33.30;23.70
80232;DHT22;70197;42.124;24.752;2023-07-30T13:55:44;33.30;24.00
80232;DHT22;70197;42.124;24.752;2023-07-30T13:58:10;33.20;23.70
80232;DHT22;70197;42.124;24.752;2023-07-30T14:00:36;33.20;23.90
80232;DHT22;70197;42.124;24.752;2023-07-30T14:03:02;33.10;23.70
80232;DHT22;70197;42.124;24.752;2023-07-30T14:05:27;33.10;23.50
80232;DHT22;70197;42.124;24.752;2023-07-30T14:07:54;33.00;23.30
80232;DHT22;70197;42.124;24.752;2023-07-30T14:10:22;33.00;23.90
80232;DHT22;70197;42.124;24.752;2023-07-30T14:12:48;33.00;24.00
80232;DHT22;70197;42.124;24.752;2023-07-30T14:15:14;33.00;23.80
80232;DHT22;70197;42.124;24.752;2023-07-30T14:17:43;33.00;24.20
80232;DHT22;70197;42.124;24.752;2023-07-30T14:20:09;33.00;23.80
80232;DHT22;70197;42.124;24.752;2023-07-30T14:22:35;32.90;24.90
80232;DHT22;70197;42.124;24.752;2023-07-30T14:25:04;33.00;24.80
80232;DHT22;70197;42.124;24.752;2023-07-30T14:27:30;33.00;24.60
80232;DHT22;70197;42.124;24.752;2023-07-30T14:29:56;33.00;24.80
80232;DHT22;70197;42.124;24.752;2023-07-30T14:32:23;33.00;24.90
80232;DHT22;70197;42.124;24.752;2023-07-30T14:34:49;33.00;24.90
80232;DHT22;70197;42.124;24.752;2023-07-30T14:37:14;32.90;24.90
80232;DHT22;70197;42.124;24.752;2023-07-30T14:39:40;32.90;25.70
80232;DHT22;70197;42.124;24.752;2023-07-30T14:42:06;32.80;26.70
80232;DHT22;70197;42.124;24.752;2023-07-30T14:44:33;32.80;26.00
80232;DHT22;70197;42.124;24.752;2023-07-30T14:46:58;32.70;26.00
80232;DHT22;70197;42.124;24.752;2023-07-30T14:49:25;32.70;26.10
80232;DHT22;70197;42.124;24.752;2023-07-30T14:51:51;32.60;26.10
80232;DHT22;70197;42.124;24.752;2023-07-30T14:54:20;32.50;25.60
80232;DHT22;70197;42.124;24.752;2023-07-30T14:56:45;32.40;25.20
80232;DHT22;70197;42.124;24.752;2023-07-30T14:59:11;32.30;24.80
80232;DHT22;70197;42.124;24.752;2023-07-30T15:01:36;32.30;25.90
80232;DHT22;70197;42.124;24.752;2023-07-30T15:04:03;32.30;25.80
80232;DHT22;70197;42.124;24.752;2023-07-30T15:06:30;32.20;25.70
80232;DHT22;70197;42.124;24.752;2023-07-30T15:08:56;32.20;26.40
80232;DHT22;70197;42.124;24.752;2023-07-30T15:11:22;32.10;26.00
80232;DHT22;70197;42.124;24.752;2023-07-30T15:13:48;32.10;26.20
80232;DHT22;70197;42.124;24.752;2023-07-30T15:16:14;32.10;26.30
80232;DHT22;70197;42.124;24.752;2023-07-30T15:18:41;32.00;26.20